Terminal Aerodrome Forecast
Issued by NWS

Home | Current Version | Previous Version | Graphics & Text | Print | Product List | Glossary On
Versions: 1 2 3 4 5 6 7 8 9 10 11 12 13 14
549
FTUS45 KGGW 230520
TAFSDY
TAF
KSDY 230520Z 2306/2406 09011KT P6SM VCSH OVC040
     FM231000 07009KT P6SM -RA OVC025
     FM231300 08008KT P6SM -RA OVC015
     FM231800 10013KT 5SM -RA BR OVC009
     FM240300 09007KT P6SM VCSH OVC004=

USA.gov is the U.S. government's official web portal to all federal, state and local government web resources and services.